sensor_id;sensor_type;location;lat;lon;timestamp;P1;durP1;ratioP1;P2;durP2;ratioP2
7003;SDS011;3542;48.812;9.146;2023-02-02T00:01:27;5.20;;;1.40;;
7003;SDS011;3542;48.812;9.146;2023-02-02T00:03:53;82.60;;;19.73;;
7003;SDS011;3542;48.812;9.146;2023-02-02T00:06:20;47.97;;;3.50;;
7003;SDS011;3542;48.812;9.146;2023-02-02T00:08:46;27.70;;;1.83;;
7003;SDS011;3542;48.812;9.146;2023-02-02T00:11:13;12.47;;;1.77;;
7003;SDS011;3542;48.812;9.146;2023-02-02T00:13:39;10.10;;;1.90;;
7003;SDS011;3542;48.812;9.146;2023-02-02T00:19:03;6.83;;;1.87;;
7003;SDS011;3542;48.812;9.146;2023-02-02T00:21:36;28.20;;;9.93;;
7003;SDS011;3542;48.812;9.146;2023-02-02T00:24:02;12.53;;;2.60;;
7003;SDS011;3542;48.812;9.146;2023-02-02T00:26:28;6.07;;;1.10;;
7003;SDS011;3542;48.812;9.146;2023-02-02T00:28:54;8.50;;;1.57;;
7003;SDS011;3542;48.812;9.146;2023-02-02T00:31:20;9.63;;;1.70;;
7003;SDS011;3542;48.812;9.146;2023-02-02T00:33:46;62.60;;;22.57;;
7003;SDS011;3542;48.812;9.146;2023-02-02T00:36:13;10.97;;;1.93;;
7003;SDS011;3542;48.812;9.146;2023-02-02T00:38:39;11.17;;;2.13;;
7003;SDS011;3542;48.812;9.146;2023-02-02T00:41:05;7.60;;;1.63;;
7003;SDS011;3542;48.812;9.146;2023-02-02T00:43:31;6.60;;;1.87;;
7003;SDS011;3542;48.812;9.146;2023-02-02T00:45:56;10.33;;;2.00;;
7003;SDS011;3542;48.812;9.146;2023-02-02T00:48:22;17.77;;;2.47;;
7003;SDS011;3542;48.812;9.146;2023-02-02T00:50:49;11.00;;;1.97;;
7003;SDS011;3542;48.812;9.146;2023-02-02T00:53:16;15.07;;;2.07;;
7003;SDS011;3542;48.812;9.146;2023-02-02T00:55:41;11.97;;;2.00;;
7003;SDS011;3542;48.812;9.146;2023-02-02T00:58:06;3.87;;;1.97;;
7003;SDS011;3542;48.812;9.146;2023-02-02T01:00:32;7.97;;;2.10;;
7003;SDS011;3542;48.812;9.146;2023-02-02T01:02:57;3.70;;;1.83;;
7003;SDS011;3542;48.812;9.146;2023-02-02T01:05:28;10.97;;;2.10;;
7003;SDS011;3542;48.812;9.146;2023-02-02T01:07:54;9.23;;;1.83;;
7003;SDS011;3542;48.812;9.146;2023-02-02T01:10:20;5.40;;;1.90;;
7003;SDS011;3542;48.812;9.146;2023-02-02T01:12:45;8.37;;;2.03;;
7003;SDS011;3542;48.812;9.146;2023-02-02T01:15:11;10.80;;;1.53;;
7003;SDS011;3542;48.812;9.146;2023-02-02T01:17:37;8.00;;;1.30;;
7003;SDS011;3542;48.812;9.146;2023-02-02T01:20:04;8.60;;;1.10;;
7003;SDS011;3542;48.812;9.146;2023-02-02T01:22:30;8.40;;;1.60;;
7003;SDS011;3542;48.812;9.146;2023-02-02T01:24:57;10.40;;;1.93;;
7003;SDS011;3542;48.812;9.146;2023-02-02T01:27:23;4.67;;;1.43;;
7003;SDS011;3542;48.812;9.146;2023-02-02T01:29:49;26.27;;;6.50;;
7003;SDS011;3542;48.812;9.146;2023-02-02T01:32:15;5.60;;;1.27;;
7003;SDS011;3542;48.812;9.146;2023-02-02T01:34:40;3.90;;;1.50;;
7003;SDS011;3542;48.812;9.146;2023-02-02T01:37:07;12.63;;;1.53;;
7003;SDS011;3542;48.812;9.146;2023-02-02T01:39:33;3.63;;;1.90;;
7003;SDS011;3542;48.812;9.146;2023-02-02T01:41:59;7.50;;;1.57;;
7003;SDS011;3542;48.812;9.146;2023-02-02T01:47:29;2.33;;;1.83;;
7003;SDS011;3542;48.812;9.146;2023-02-02T01:49:58;21.47;;;2.90;;
7003;SDS011;3542;48.812;9.146;2023-02-02T01:52:24;13.60;;;2.30;;
7003;SDS011;3542;48.812;9.146;2023-02-02T01:54:53;7.90;;;1.80;;
7003;SDS011;3542;48.812;9.146;2023-02-02T01:57:28;7.03;;;1.90;;
7003;SDS011;3542;48.812;9.146;2023-02-02T02:00:05;12.13;;;1.57;;
7003;SDS011;3542;48.812;9.146;2023-02-02T03:30:31;8.20;;;2.40;;
7003;SDS011;3542;48.812;9.146;2023-02-02T03:32:57;3.30;;;1.27;;
7003;SDS011;3542;48.812;9.146;2023-02-02T03:35:22;69.13;;;64.33;;
7003;SDS011;3542;48.812;9.146;2023-02-02T03:37:49;12.20;;;2.10;;
7003;SDS011;3542;48.812;9.146;2023-02-02T03:40:15;3.23;;;1.67;;
7003;SDS011;3542;48.812;9.146;2023-02-02T03:42:41;9.43;;;1.33;;
7003;SDS011;3542;48.812;9.146;2023-02-02T03:45:06;8.50;;;1.83;;
7003;SDS011;3542;48.812;9.146;2023-02-02T03:47:32;7.40;;;1.77;;
7003;SDS011;3542;48.812;9.146;2023-02-02T03:49:58;3.30;;;1.63;;
7003;SDS011;3542;48.812;9.146;2023-02-02T03:52:23;5.63;;;1.80;;
7003;SDS011;3542;48.812;9.146;2023-02-02T03:54:49;112.83;;;103.43;;
7003;SDS011;3542;48.812;9.146;2023-02-02T03:57:15;3.13;;;1.50;;
7003;SDS011;3542;48.812;9.146;2023-02-02T03:59:41;5.80;;;2.33;;
7003;SDS011;3542;48.812;9.146;2023-02-02T04:02:06;4.43;;;1.80;;
7003;SDS011;3542;48.812;9.146;2023-02-02T04:04:32;6.43;;;1.80;;
7003;SDS011;3542;48.812;9.146;2023-02-02T04:06:57;5.30;;;2.40;;
7003;SDS011;3542;48.812;9.146;2023-02-02T04:09:23;6.17;;;2.60;;
7003;SDS011;3542;48.812;9.146;2023-02-02T04:11:49;6.70;;;2.23;;
7003;SDS011;3542;48.812;9.146;2023-02-02T04:14:15;4.60;;;1.50;;
7003;SDS011;3542;48.812;9.146;2023-02-02T04:16:40;10.63;;;1.47;;
7003;SDS011;3542;48.812;9.146;2023-02-02T04:19:06;4.70;;;2.07;;
7003;SDS011;3542;48.812;9.146;2023-02-02T04:21:32;6.00;;;2.10;;
7003;SDS011;3542;48.812;9.146;2023-02-02T04:23:57;6.30;;;1.87;;
7003;SDS011;3542;48.812;9.146;2023-02-02T04:26:23;2.97;;;1.60;;
7003;SDS011;3542;48.812;9.146;2023-02-02T04:28:50;7.90;;;1.63;;
7003;SDS011;3542;48.812;9.146;2023-02-02T04:31:16;9.20;;;2.00;;
7003;SDS011;3542;48.812;9.146;2023-02-02T04:33:41;7.50;;;1.73;;
7003;SDS011;3542;48.812;9.146;2023-02-02T04:36:07;8.87;;;1.90;;
7003;SDS011;3542;48.812;9.146;2023-02-02T04:38:33;3.00;;;1.23;;
7003;SDS011;3542;48.812;9.146;2023-02-02T04:41:04;3.33;;;1.40;;
7003;SDS011;3542;48.812;9.146;2023-02-02T04:43:32;10.70;;;2.50;;
7003;SDS011;3542;48.812;9.146;2023-02-02T04:45:58;2.10;;;1.80;;
7003;SDS011;3542;48.812;9.146;2023-02-02T04:48:23;11.87;;;1.83;;
7003;SDS011;3542;48.812;9.146;2023-02-02T04:50:49;6.77;;;2.23;;
7003;SDS011;3542;48.812;9.146;2023-02-02T04:53:14;4.77;;;1.80;;
7003;SDS011;3542;48.812;9.146;2023-02-02T04:55:40;7.37;;;1.63;;
7003;SDS011;3542;48.812;9.146;2023-02-02T04:58:05;4.87;;;1.50;;
7003;SDS011;3542;48.812;9.146;2023-02-02T05:00:31;6.13;;;1.67;;
7003;SDS011;3542;48.812;9.146;2023-02-02T05:02:57;3.33;;;1.60;;
7003;SDS011;3542;48.812;9.146;2023-02-02T05:05:22;7.90;;;1.97;;
7003;SDS011;3542;48.812;9.146;2023-02-02T05:07:48;10.47;;;2.63;;
7003;SDS011;3542;48.812;9.146;2023-02-02T05:10:13;43.40;;;40.23;;
7003;SDS011;3542;48.812;9.146;2023-02-02T05:12:39;7.73;;;1.77;;
7003;SDS011;3542;48.812;9.146;2023-02-02T05:15:04;10.33;;;2.70;;
7003;SDS011;3542;48.812;9.146;2023-02-02T05:17:31;6.03;;;1.70;;
7003;SDS011;3542;48.812;9.146;2023-02-02T05:19:57;5.50;;;2.20;;
7003;SDS011;3542;48.812;9.146;2023-02-02T05:22:23;5.93;;;1.90;;
7003;SDS011;3542;48.812;9.146;2023-02-02T05:24:48;6.87;;;1.80;;
7003;SDS011;3542;48.812;9.146;2023-02-02T05:27:14;3.90;;;1.80;;
7003;SDS011;3542;48.812;9.146;2023-02-02T05:29:39;6.53;;;2.80;;
7003;SDS011;3542;48.812;9.146;2023-02-02T05:32:05;32.93;;;22.20;;
7003;SDS011;3542;48.812;9.146;2023-02-02T05:34:30;7.07;;;2.17;;
7003;SDS011;3542;48.812;9.146;2023-02-02T05:36:56;7.00;;;2.33;;
7003;SDS011;3542;48.812;9.146;2023-02-02T05:39:21;7.03;;;2.30;;
7003;SDS011;3542;48.812;9.146;2023-02-02T05:41:47;7.23;;;2.60;;
7003;SDS011;3542;48.812;9.146;2023-02-02T05:44:12;7.50;;;2.60;;
7003;SDS011;3542;48.812;9.146;2023-02-02T05:46:38;11.20;;;2.70;;
7003;SDS011;3542;48.812;9.146;2023-02-02T05:49:05;10.33;;;2.80;;
7003;SDS011;3542;48.812;9.146;2023-02-02T05:51:32;9.83;;;3.77;;
7003;SDS011;3542;48.812;9.146;2023-02-02T05:54:01;8.93;;;2.63;;
7003;SDS011;3542;48.812;9.146;2023-02-02T05:56:26;7.10;;;2.33;;
7003;SDS011;3542;48.812;9.146;2023-02-02T05:58:52;24.63;;;22.63;;
7003;SDS011;3542;48.812;9.146;2023-02-02T06:01:17;13.23;;;6.10;;
7003;SDS011;3542;48.812;9.146;2023-02-02T06:03:45;8.53;;;2.00;;
7003;SDS011;3542;48.812;9.146;2023-02-02T06:06:11;5.07;;;2.67;;
7003;SDS011;3542;48.812;9.146;2023-02-02T06:08:36;9.77;;;3.07;;
7003;SDS011;3542;48.812;9.146;2023-02-02T06:11:08;7.60;;;2.73;;
7003;SDS011;3542;48.812;9.146;2023-02-02T06:13:38;8.03;;;2.10;;
7003;SDS011;3542;48.812;9.146;2023-02-02T06:16:04;3.43;;;1.67;;
7003;SDS011;3542;48.812;9.146;2023-02-02T06:18:29;5.47;;;2.23;;
7003;SDS011;3542;48.812;9.146;2023-02-02T06:20:56;5.90;;;2.07;;
7003;SDS011;3542;48.812;9.146;2023-02-02T06:23:22;22.20;;;3.83;;
7003;SDS011;3542;48.812;9.146;2023-02-02T06:25:48;10.20;;;2.73;;
7003;SDS011;3542;48.812;9.146;2023-02-02T06:28:13;7.63;;;2.43;;
7003;SDS011;3542;48.812;9.146;2023-02-02T06:30:39;9.83;;;2.30;;
7003;SDS011;3542;48.812;9.146;2023-02-02T06:33:04;7.10;;;2.47;;
7003;SDS011;3542;48.812;9.146;2023-02-02T06:35:31;15.47;;;3.30;;
7003;SDS011;3542;48.812;9.146;2023-02-02T06:37:57;10.30;;;2.63;;
7003;SDS011;3542;48.812;9.146;2023-02-02T06:40:23;4.63;;;1.87;;
7003;SDS011;3542;48.812;9.146;2023-02-02T06:42:54;10.60;;;3.53;;
7003;SDS011;3542;48.812;9.146;2023-02-02T06:45:20;7.60;;;2.63;;
7003;SDS011;3542;48.812;9.146;2023-02-02T06:47:46;7.67;;;4.33;;
7003;SDS011;3542;48.812;9.146;2023-02-02T06:50:11;5.77;;;2.50;;
7003;SDS011;3542;48.812;9.146;2023-02-02T06:52:37;8.40;;;2.40;;
7003;SDS011;3542;48.812;9.146;2023-02-02T06:55:03;7.17;;;2.37;;
7003;SDS011;3542;48.812;9.146;2023-02-02T06:57:28;7.97;;;1.93;;
7003;SDS011;3542;48.812;9.146;2023-02-02T06:59:54;5.13;;;2.37;;
7003;SDS011;3542;48.812;9.146;2023-02-02T07:02:19;4.60;;;1.97;;
7003;SDS011;3542;48.812;9.146;2023-02-02T07:04:47;8.90;;;2.10;;
7003;SDS011;3542;48.812;9.146;2023-02-02T07:07:13;4.80;;;2.10;;
7003;SDS011;3542;48.812;9.146;2023-02-02T07:09:38;5.40;;;1.90;;
7003;SDS011;3542;48.812;9.146;2023-02-02T07:12:04;8.13;;;2.20;;
7003;SDS011;3542;48.812;9.146;2023-02-02T07:14:30;4.73;;;1.33;;
7003;SDS011;3542;48.812;9.146;2023-02-02T07:16:55;5.63;;;1.80;;
7003;SDS011;3542;48.812;9.146;2023-02-02T07:19:21;3.40;;;1.33;;
7003;SDS011;3542;48.812;9.146;2023-02-02T07:21:46;5.53;;;1.27;;
7003;SDS011;3542;48.812;9.146;2023-02-02T07:24:12;2.97;;;1.47;;
7003;SDS011;3542;48.812;9.146;2023-02-02T07:26:37;2.40;;;1.20;;
7003;SDS011;3542;48.812;9.146;2023-02-02T07:29:03;7.33;;;1.67;;
7003;SDS011;3542;48.812;9.146;2023-02-02T07:31:29;5.33;;;1.30;;
7003;SDS011;3542;48.812;9.146;2023-02-02T07:33:55;9.33;;;1.70;;
7003;SDS011;3542;48.812;9.146;2023-02-02T07:36:21;5.70;;;1.73;;
7003;SDS011;3542;48.812;9.146;2023-02-02T07:38:49;2.90;;;1.70;;
7003;SDS011;3542;48.812;9.146;2023-02-02T07:41:17;4.73;;;1.97;;
7003;SDS011;3542;48.812;9.146;2023-02-02T07:43:45;57.43;;;45.10;;
7003;SDS011;3542;48.812;9.146;2023-02-02T07:46:11;7.23;;;2.27;;
7003;SDS011;3542;48.812;9.146;2023-02-02T07:48:38;11.00;;;2.87;;
7003;SDS011;3542;48.812;9.146;2023-02-02T07:51:05;5.07;;;2.30;;
7003;SDS011;3542;48.812;9.146;2023-02-02T07:53:37;5.47;;;2.90;;
7003;SDS011;3542;48.812;9.146;2023-02-02T07:58:32;9.33;;;3.23;;
7003;SDS011;3542;48.812;9.146;2023-02-02T08:01:02;4.50;;;1.90;;
7003;SDS011;3542;48.812;9.146;2023-02-02T08:03:28;3.20;;;1.77;;
7003;SDS011;3542;48.812;9.146;2023-02-02T08:05:54;6.80;;;2.00;;
7003;SDS011;3542;48.812;9.146;2023-02-02T08:08:20;7.00;;;1.80;;
7003;SDS011;3542;48.812;9.146;2023-02-02T08:10:49;11.27;;;2.23;;
7003;SDS011;3542;48.812;9.146;2023-02-02T08:13:15;8.63;;;2.00;;
7003;SDS011;3542;48.812;9.146;2023-02-02T08:15:41;7.20;;;2.30;;
7003;SDS011;3542;48.812;9.146;2023-02-02T08:18:07;9.30;;;3.17;;
7003;SDS011;3542;48.812;9.146;2023-02-02T08:20:33;6.30;;;1.97;;
7003;SDS011;3542;48.812;9.146;2023-02-02T08:22:58;1.90;;;1.63;;
7003;SDS011;3542;48.812;9.146;2023-02-02T08:25:24;9.30;;;2.20;;
7003;SDS011;3542;48.812;9.146;2023-02-02T08:27:53;5.43;;;1.63;;
7003;SDS011;3542;48.812;9.146;2023-02-02T08:30:19;42.93;;;22.23;;
7003;SDS011;3542;48.812;9.146;2023-02-02T08:32:45;12.50;;;2.60;;
7003;SDS011;3542;48.812;9.146;2023-02-02T08:35:10;23.33;;;7.03;;
7003;SDS011;3542;48.812;9.146;2023-02-02T08:37:36;21.33;;;2.53;;
7003;SDS011;3542;48.812;9.146;2023-02-02T08:40:01;6.30;;;2.10;;
7003;SDS011;3542;48.812;9.146;2023-02-02T08:42:27;6.07;;;2.00;;
7003;SDS011;3542;48.812;9.146;2023-02-02T08:44:53;8.10;;;1.87;;
7003;SDS011;3542;48.812;9.146;2023-02-02T08:47:18;35.43;;;14.60;;
7003;SDS011;3542;48.812;9.146;2023-02-02T08:49:44;21.47;;;2.50;;
7003;SDS011;3542;48.812;9.146;2023-02-02T08:52:09;54.33;;;6.07;;
7003;SDS011;3542;48.812;9.146;2023-02-02T08:54:35;14.10;;;3.37;;
7003;SDS011;3542;48.812;9.146;2023-02-02T08:57:00;47.67;;;40.97;;
7003;SDS011;3542;48.812;9.146;2023-02-02T08:59:26;11.37;;;2.40;;
7003;SDS011;3542;48.812;9.146;2023-02-02T09:01:51;10.00;;;2.70;;
7003;SDS011;3542;48.812;9.146;2023-02-02T09:04:17;45.57;;;18.80;;
7003;SDS011;3542;48.812;9.146;2023-02-02T09:06:43;7.40;;;3.30;;
7003;SDS011;3542;48.812;9.146;2023-02-02T09:09:11;7.07;;;4.13;;
7003;SDS011;3542;48.812;9.146;2023-02-02T09:11:38;10.33;;;2.83;;
7003;SDS011;3542;48.812;9.146;2023-02-02T09:14:04;8.27;;;2.27;;
7003;SDS011;3542;48.812;9.146;2023-02-02T09:16:31;12.10;;;2.37;;
7003;SDS011;3542;48.812;9.146;2023-02-02T09:18:57;4.10;;;1.83;;
7003;SDS011;3542;48.812;9.146;2023-02-02T09:21:23;11.70;;;3.10;;
7003;SDS011;3542;48.812;9.146;2023-02-02T09:23:49;3.10;;;2.10;;
7003;SDS011;3542;48.812;9.146;2023-02-02T09:28:51;9.83;;;2.33;;
7003;SDS011;3542;48.812;9.146;2023-02-02T09:31:27;16.43;;;11.33;;
7003;SDS011;3542;48.812;9.146;2023-02-02T09:33:58;3.77;;;2.77;;
7003;SDS011;3542;48.812;9.146;2023-02-02T09:36:26;11.27;;;2.93;;
7003;SDS011;3542;48.812;9.146;2023-02-02T09:38:51;7.40;;;2.57;;
7003;SDS011;3542;48.812;9.146;2023-02-02T09:46:52;10.70;;;3.57;;
7003;SDS011;3542;48.812;9.146;2023-02-02T09:49:27;15.27;;;2.67;;
7003;SDS011;3542;48.812;9.146;2023-02-02T09:52:09;10.47;;;2.80;;
7003;SDS011;3542;48.812;9.146;2023-02-02T09:54:49;12.20;;;3.00;;
7003;SDS011;3542;48.812;9.146;2023-02-02T09:57:21;4.27;;;2.80;;
7003;SDS011;3542;48.812;9.146;2023-02-02T09:59:51;8.83;;;3.17;;
7003;SDS011;3542;48.812;9.146;2023-02-02T10:02:20;8.57;;;2.80;;
7003;SDS011;3542;48.812;9.146;2023-02-02T10:04:50;6.53;;;2.90;;
7003;SDS011;3542;48.812;9.146;2023-02-02T10:07:20;13.10;;;2.80;;
7003;SDS011;3542;48.812;9.146;2023-02-02T10:09:58;5.57;;;2.80;;
7003;SDS011;3542;48.812;9.146;2023-02-02T10:15:14;9.57;;;3.47;;
7003;SDS011;3542;48.812;9.146;2023-02-02T10:18:05;12.90;;;3.17;;
7003;SDS011;3542;48.812;9.146;2023-02-02T10:20:38;21.33;;;10.27;;
7003;SDS011;3542;48.812;9.146;2023-02-02T10:23:24;12.83;;;4.03;;
7003;SDS011;3542;48.812;9.146;2023-02-02T10:26:38;11.83;;;2.40;;
7003;SDS011;3542;48.812;9.146;2023-02-02T10:37:25;1999.90;;;999.90;;
7003;SDS011;3542;48.812;9.146;2023-02-02T10:45:56;1999.90;;;999.90;;
7003;SDS011;3542;48.812;9.146;2023-02-02T10:48:25;1999.90;;;999.90;;
7003;SDS011;3542;48.812;9.146;2023-02-02T10:50:56;1999.90;;;999.90;;
7003;SDS011;3542;48.812;9.146;2023-02-02T10:53:29;1999.90;;;999.90;;
7003;SDS011;3542;48.812;9.146;2023-02-02T10:58:31;1999.90;;;999.90;;
7003;SDS011;3542;48.812;9.146;2023-02-02T11:01:08;1999.90;;;999.90;;
7003;SDS011;3542;48.812;9.146;2023-02-02T11:03:35;1999.90;;;999.90;;
7003;SDS011;3542;48.812;9.146;2023-02-02T11:06:03;1999.90;;;999.90;;
7003;SDS011;3542;48.812;9.146;2023-02-02T11:08:49;1999.90;;;999.90;;
7003;SDS011;3542;48.812;9.146;2023-02-02T11:11:28;1999.90;;;999.90;;
7003;SDS011;3542;48.812;9.146;2023-02-02T11:14:03;1999.90;;;999.90;;
7003;SDS011;3542;48.812;9.146;2023-02-02T11:16:37;1999.90;;;999.90;;
7003;SDS011;3542;48.812;9.146;2023-02-02T11:21:50;1999.90;;;999.90;;
7003;SDS011;3542;48.812;9.146;2023-02-02T11:24:23;1999.90;;;999.90;;
7003;SDS011;3542;48.812;9.146;2023-02-02T11:27:05;1999.90;;;999.90;;
7003;SDS011;3542;48.812;9.146;2023-02-02T11:37:33;1999.90;;;999.90;;
7003;SDS011;3542;48.812;9.146;2023-02-02T11:42:48;1999.90;;;999.90;;
7003;SDS011;3542;48.812;9.146;2023-02-02T11:45:21;1999.90;;;999.90;;
7003;SDS011;3542;48.812;9.146;2023-02-02T11:48:04;1999.90;;;999.90;;
7003;SDS011;3542;48.812;9.146;2023-02-02T11:50:36;1999.90;;;999.90;;
7003;SDS011;3542;48.812;9.146;2023-02-02T11:53:02;1999.90;;;999.90;;
7003;SDS011;3542;48.812;9.146;2023-02-02T11:55:29;1999.90;;;999.90;;
7003;SDS011;3542;48.812;9.146;2023-02-02T11:58:08;1999.90;;;999.90;;
7003;SDS011;3542;48.812;9.146;2023-02-02T12:00:48;1999.90;;;999.90;;
7003;SDS011;3542;48.812;9.146;2023-02-02T12:03:28;1999.90;;;999.90;;
7003;SDS011;3542;48.812;9.146;2023-02-02T12:06:17;1999.90;;;999.90;;
7003;SDS011;3542;48.812;9.146;2023-02-02T12:08:43;1999.90;;;999.90;;
7003;SDS011;3542;48.812;9.146;2023-02-02T12:11:09;1999.90;;;999.90;;
7003;SDS011;3542;48.812;9.146;2023-02-02T12:14:10;1999.90;;;999.90;;
7003;SDS011;3542;48.812;9.146;2023-02-02T12:22:34;1999.90;;;999.90;;
7003;SDS011;3542;48.812;9.146;2023-02-02T12:25:27;1999.90;;;999.90;;
7003;SDS011;3542;48.812;9.146;2023-02-02T12:33:42;1999.90;;;999.90;;
7003;SDS011;3542;48.812;9.146;2023-02-02T12:36:32;1999.90;;;999.90;;
7003;SDS011;3542;48.812;9.146;2023-02-02T12:41:59;1999.90;;;999.90;;
7003;SDS011;3542;48.812;9.146;2023-02-02T12:47:21;1999.90;;;999.90;;
7003;SDS011;3542;48.812;9.146;2023-02-02T12:50:29;1999.90;;;999.90;;
7003;SDS011;3542;48.812;9.146;2023-02-02T12:55:43;1999.90;;;999.90;;
7003;SDS011;3542;48.812;9.146;2023-02-02T13:06:01;1999.90;;;999.90;;
7003;SDS011;3542;48.812;9.146;2023-02-02T13:11:43;1999.90;;;999.90;;
7003;SDS011;3542;48.812;9.146;2023-02-02T13:14:29;1999.90;;;999.90;;
7003;SDS011;3542;48.812;9.146;2023-02-02T13:16:59;1999.90;;;999.90;;
7003;SDS011;3542;48.812;9.146;2023-02-02T13:19:39;1999.90;;;999.90;;
7003;SDS011;3542;48.812;9.146;2023-02-02T13:22:13;1999.90;;;999.90;;
7003;SDS011;3542;48.812;9.146;2023-02-02T13:24:44;1999.90;;;999.90;;
7003;SDS011;3542;48.812;9.146;2023-02-02T13:27:13;1999.90;;;999.90;;
7003;SDS011;3542;48.812;9.146;2023-02-02T13:29:56;1999.90;;;999.90;;
7003;SDS011;3542;48.812;9.146;2023-02-02T13:32:43;1999.90;;;999.90;;
7003;SDS011;3542;48.812;9.146;2023-02-02T13:35:18;1999.90;;;999.90;;
7003;SDS011;3542;48.812;9.146;2023-02-02T13:37:48;1999.90;;;999.90;;
7003;SDS011;3542;48.812;9.146;2023-02-02T13:40:34;1999.90;;;999.90;;
7003;SDS011;3542;48.812;9.146;2023-02-02T13:56:57;299.30;;;224.17;;
7003;SDS011;3542;48.812;9.146;2023-02-02T14:04:57;117.93;;;67.07;;
7003;SDS011;3542;48.812;9.146;2023-02-02T14:07:37;1999.90;;;999.90;;
7003;SDS011;3542;48.812;9.146;2023-02-02T14:10:19;1999.90;;;999.90;;
7003;SDS011;3542;48.812;9.146;2023-02-02T14:12:46;139.17;;;47.23;;
7003;SDS011;3542;48.812;9.146;2023-02-02T14:15:12;126.20;;;29.93;;
7003;SDS011;3542;48.812;9.146;2023-02-02T14:20:04;120.70;;;27.73;;
7003;SDS011;3542;48.812;9.146;2023-02-02T14:22:50;114.97;;;20.77;;
7003;SDS011;3542;48.812;9.146;2023-02-02T14:27:58;144.73;;;66.57;;
7003;SDS011;3542;48.812;9.146;2023-02-02T14:30:27;111.97;;;18.50;;
7003;SDS011;3542;48.812;9.146;2023-02-02T14:36:13;109.50;;;16.90;;
7003;SDS011;3542;48.812;9.146;2023-02-02T14:38:49;99.90;;;10.07;;
7003;SDS011;3542;48.812;9.146;2023-02-02T14:44:58;111.07;;;18.80;;
7003;SDS011;3542;48.812;9.146;2023-02-02T14:47:46;117.20;;;22.60;;
7003;SDS011;3542;48.812;9.146;2023-02-02T14:55:49;1999.90;;;999.90;;
7003;SDS011;3542;48.812;9.146;2023-02-02T14:58:22;135.60;;;41.30;;
7003;SDS011;3542;48.812;9.146;2023-02-02T15:00:54;152.07;;;64.27;;
7003;SDS011;3542;48.812;9.146;2023-02-02T15:14:34;1999.90;;;999.90;;
7003;SDS011;3542;48.812;9.146;2023-02-02T15:28:50;1999.90;;;999.90;;
7003;SDS011;3542;48.812;9.146;2023-02-02T15:31:30;1999.90;;;999.90;;
7003;SDS011;3542;48.812;9.146;2023-02-02T15:34:08;1999.90;;;999.90;;
7003;SDS011;3542;48.812;9.146;2023-02-02T15:36:45;1999.90;;;999.90;;
7003;SDS011;3542;48.812;9.146;2023-02-02T15:39:17;1999.90;;;999.90;;
7003;SDS011;3542;48.812;9.146;2023-02-02T15:41:52;1999.90;;;999.90;;
7003;SDS011;3542;48.812;9.146;2023-02-02T15:44:39;1999.90;;;999.90;;
7003;SDS011;3542;48.812;9.146;2023-02-02T15:47:05;1999.90;;;999.90;;
7003;SDS011;3542;48.812;9.146;2023-02-02T15:49:36;1999.90;;;999.90;;
7003;SDS011;3542;48.812;9.146;2023-02-02T15:52:09;1999.90;;;999.90;;
7003;SDS011;3542;48.812;9.146;2023-02-02T15:54:50;1999.90;;;999.90;;
7003;SDS011;3542;48.812;9.146;2023-02-02T15:57:30;1999.90;;;999.90;;
7003;SDS011;3542;48.812;9.146;2023-02-02T15:59:57;1999.90;;;999.90;;
7003;SDS011;3542;48.812;9.146;2023-02-02T16:02:35;1999.90;;;999.90;;
7003;SDS011;3542;48.812;9.146;2023-02-02T16:05:21;11.10;;;2.90;;
7003;SDS011;3542;48.812;9.146;2023-02-02T16:07:48;44.53;;;2.77;;
7003;SDS011;3542;48.812;9.146;2023-02-02T16:10:16;762.90;;;361.47;;
7003;SDS011;3542;48.812;9.146;2023-02-02T16:12:45;1999.90;;;999.90;;
7003;SDS011;3542;48.812;9.146;2023-02-02T16:15:15;4.50;;;1.67;;
7003;SDS011;3542;48.812;9.146;2023-02-02T16:17:44;4.40;;;1.33;;
7003;SDS011;3542;48.812;9.146;2023-02-02T16:20:11;6.67;;;1.90;;
7003;SDS011;3542;48.812;9.146;2023-02-02T16:22:38;5.47;;;2.00;;
7003;SDS011;3542;48.812;9.146;2023-02-02T16:25:06;7.03;;;1.57;;
7003;SDS011;3542;48.812;9.146;2023-02-02T16:27:34;4.73;;;1.80;;
7003;SDS011;3542;48.812;9.146;2023-02-02T16:30:05;10.37;;;2.10;;
7003;SDS011;3542;48.812;9.146;2023-02-02T16:32:33;6.70;;;3.27;;
7003;SDS011;3542;48.812;9.146;2023-02-02T16:35:03;244.10;;;59.80;;
7003;SDS011;3542;48.812;9.146;2023-02-02T16:37:32;124.57;;;33.87;;
7003;SDS011;3542;48.812;9.146;2023-02-02T16:43:12;7.37;;;2.53;;
7003;SDS011;3542;48.812;9.146;2023-02-02T16:45:49;9.73;;;1.73;;
7003;SDS011;3542;48.812;9.146;2023-02-02T16:48:27;10.67;;;2.43;;
7003;SDS011;3542;48.812;9.146;2023-02-02T16:51:07;9.70;;;2.67;;
7003;SDS011;3542;48.812;9.146;2023-02-02T16:53:36;10.37;;;2.50;;
7003;SDS011;3542;48.812;9.146;2023-02-02T16:56:02;7.40;;;2.10;;
7003;SDS011;3542;48.812;9.146;2023-02-02T16:58:29;3.10;;;2.03;;
7003;SDS011;3542;48.812;9.146;2023-02-02T17:00:56;6.17;;;2.00;;
7003;SDS011;3542;48.812;9.146;2023-02-02T17:03:35;2.90;;;1.60;;
7003;SDS011;3542;48.812;9.146;2023-02-02T17:06:03;4.80;;;1.13;;
7003;SDS011;3542;48.812;9.146;2023-02-02T17:08:30;5.40;;;3.73;;
7003;SDS011;3542;48.812;9.146;2023-02-02T17:11:02;1.53;;;1.00;;
7003;SDS011;3542;48.812;9.146;2023-02-02T17:13:42;4.50;;;1.40;;
7003;SDS011;3542;48.812;9.146;2023-02-02T17:16:09;6.33;;;1.97;;
7003;SDS011;3542;48.812;9.146;2023-02-02T17:18:43;5.67;;;2.10;;
7003;SDS011;3542;48.812;9.146;2023-02-02T17:21:20;3.87;;;1.40;;
7003;SDS011;3542;48.812;9.146;2023-02-02T17:23:49;4.97;;;1.50;;
7003;SDS011;3542;48.812;9.146;2023-02-02T17:26:16;5.33;;;1.53;;
7003;SDS011;3542;48.812;9.146;2023-02-02T17:28:42;2.90;;;1.53;;
7003;SDS011;3542;48.812;9.146;2023-02-02T17:31:09;6.60;;;2.13;;
7003;SDS011;3542;48.812;9.146;2023-02-02T17:33:38;4.23;;;1.27;;
7003;SDS011;3542;48.812;9.146;2023-02-02T17:36:05;4.57;;;1.43;;
7003;SDS011;3542;48.812;9.146;2023-02-02T17:38:31;5.37;;;1.33;;
7003;SDS011;3542;48.812;9.146;2023-02-02T17:40:58;5.00;;;1.57;;
7003;SDS011;3542;48.812;9.146;2023-02-02T17:43:25;5.13;;;1.50;;
7003;SDS011;3542;48.812;9.146;2023-02-02T17:45:51;4.20;;;1.73;;
7003;SDS011;3542;48.812;9.146;2023-02-02T17:48:17;5.53;;;1.90;;
7003;SDS011;3542;48.812;9.146;2023-02-02T17:50:43;4.60;;;1.30;;
7003;SDS011;3542;48.812;9.146;2023-02-02T17:53:10;4.97;;;1.70;;
7003;SDS011;3542;48.812;9.146;2023-02-02T17:55:37;6.90;;;2.03;;
7003;SDS011;3542;48.812;9.146;2023-02-02T17:58:05;6.47;;;1.50;;
7003;SDS011;3542;48.812;9.146;2023-02-02T18:00:31;5.50;;;1.70;;
7003;SDS011;3542;48.812;9.146;2023-02-02T18:03:04;4.90;;;1.40;;
7003;SDS011;3542;48.812;9.146;2023-02-02T18:05:36;7.93;;;1.73;;
7003;SDS011;3542;48.812;9.146;2023-02-02T18:08:02;5.60;;;1.63;;
7003;SDS011;3542;48.812;9.146;2023-02-02T18:10:27;2.80;;;1.33;;
7003;SDS011;3542;48.812;9.146;2023-02-02T18:12:54;6.20;;;1.23;;
7003;SDS011;3542;48.812;9.146;2023-02-02T18:15:20;5.97;;;1.77;;
7003;SDS011;3542;48.812;9.146;2023-02-02T18:17:46;4.43;;;1.53;;
7003;SDS011;3542;48.812;9.146;2023-02-02T18:20:12;6.63;;;1.67;;
7003;SDS011;3542;48.812;9.146;2023-02-02T18:22:39;5.60;;;1.13;;
7003;SDS011;3542;48.812;9.146;2023-02-02T18:25:08;4.47;;;2.40;;
7003;SDS011;3542;48.812;9.146;2023-02-02T18:27:34;3.53;;;1.60;;
7003;SDS011;3542;48.812;9.146;2023-02-02T18:30:00;3.80;;;3.10;;
7003;SDS011;3542;48.812;9.146;2023-02-02T18:32:26;5.95;;;3.00;;
7003;SDS011;3542;48.812;9.146;2023-02-02T18:34:51;4.40;;;2.33;;
7003;SDS011;3542;48.812;9.146;2023-02-02T18:37:19;2.70;;;2.40;;
7003;SDS011;3542;48.812;9.146;2023-02-02T18:39:49;7.27;;;2.00;;
7003;SDS011;3542;48.812;9.146;2023-02-02T18:42:15;4.10;;;3.23;;
7003;SDS011;3542;48.812;9.146;2023-02-02T18:44:41;2.93;;;2.13;;
7003;SDS011;3542;48.812;9.146;2023-02-02T18:47:07;2.00;;;1.13;;
7003;SDS011;3542;48.812;9.146;2023-02-02T18:49:32;3.93;;;1.73;;
7003;SDS011;3542;48.812;9.146;2023-02-02T18:51:58;1.60;;;1.37;;
7003;SDS011;3542;48.812;9.146;2023-02-02T18:54:23;2.23;;;1.80;;
7003;SDS011;3542;48.812;9.146;2023-02-02T18:56:49;2.03;;;1.57;;
7003;SDS011;3542;48.812;9.146;2023-02-02T18:59:15;2.80;;;1.70;;